PWSweather.com
Personal Weather Stations
Station Observations
ANTHEMNP
Anthem North Parkside, Anthem, AZ 85086

Anthem North ParksideAnthem, AZ 85086

Lat: 33.876464, Lon: -112.13861199999997

Elevation: 1930

Station Type: Davis Vantage Vue with Pro 2 console

http://www.azjerry.com/ANPW/wxindex.php

High Low Average
Temperature 77.3°F25.2°C 62.4°F16.9°C 68.1°F20.1°C
Dew Point 36.0°F2.2°C 29.0°F-1.7°C 31.5°F-0.3°C
Winds 7.8 mph 12.6 kmh Calm Calm 3.0 mph SE4.8 kmh SE
Wind Gusts 14.0 mph22.5 kmh -- 6.0 mph9.7 kmh
Humidity 30% 18% 26%
Pressure 30.05 in1017.6 mb 29.98 in1015.2 mb -
Precipitation 0.00 in0.0 mm - -
Hour Temp Dew Point Humidity Winds Wind Gusts Pressure Precip Precip Rate Daily Precip Total
12:00 AM 64.9°F18.3°C 31.0°F-0.6°C 28% 5.1 mph N8.2 kmh N 9.0 mph14.5 kmh 30.03 in1016.9 mb 0.00 in0.0 mm 0.00 in0.0 mm 0.00 in0.0 mm
12:10 AM 64.6°F18.1°C 31.0°F-0.6°C 28% 5.3 mph N8.5 kmh N 9.0 mph14.5 kmh 30.03 in1016.9 mb 0.00 in0.0 mm 0.00 in0.0 mm 0.00 in0.0 mm
12:20 AM 64.9°F18.3°C 31.0°F-0.6°C 28% 6.9 mph N11.1 kmh N 12.0 mph19.3 kmh 30.03 in1016.9 mb 0.00 in0.0 mm 0.00 in0.0 mm 0.00 in0.0 mm
12:30 AM 65.0°F18.3°C 31.0°F-0.6°C 28% 7.6 mph NE12.2 kmh NE 13.0 mph20.9 kmh 30.03 in1016.9 mb 0.00 in0.0 mm 0.00 in0.0 mm 0.00 in0.0 mm
12:40 AM 64.5°F18.1°C 31.0°F-0.6°C 28% 7.5 mph N12.1 kmh N 14.0 mph22.5 kmh 30.03 in1016.9 mb 0.00 in0.0 mm 0.00 in0.0 mm 0.00 in0.0 mm
12:50 AM 64.4°F18.0°C 30.0°F-1.1°C 28% 6.9 mph NNW11.1 kmh NNW 12.0 mph19.3 kmh 30.02 in1016.6 mb 0.00 in0.0 mm 0.00 in0.0 mm 0.00 in0.0 mm
01:00 AM 64.4°F18.0°C 30.0°F-1.1°C 28% 6.5 mph N10.5 kmh N 11.0 mph17.7 kmh 30.02 in1016.6 mb 0.00 in0.0 mm 0.00 in0.0 mm 0.00 in0.0 mm
01:10 AM 64.3°F17.9°C 30.0°F-1.1°C 28% 5.5 mph N8.9 kmh N 10.0 mph16.1 kmh 30.02 in1016.6 mb 0.00 in0.0 mm 0.00 in0.0 mm 0.00 in0.0 mm
01:20 AM 64.4°F18.0°C 30.0°F-1.1°C 28% 5.0 mph N8.0 kmh N 12.0 mph19.3 kmh 30.02 in1016.6 mb 0.00 in0.0 mm 0.00 in0.0 mm 0.00 in0.0 mm
01:30 AM 64.3°F17.9°C 30.0°F-1.1°C 28% 6.2 mph N10.0 kmh N 11.0 mph17.7 kmh 30.02 in1016.6 mb 0.00 in0.0 mm 0.00 in0.0 mm 0.00 in0.0 mm
01:40 AM 64.2°F17.9°C 30.0°F-1.1°C 28% 6.3 mph N10.1 kmh N 11.0 mph17.7 kmh 30.02 in1016.6 mb 0.00 in0.0 mm 0.00 in0.0 mm 0.00 in0.0 mm
01:50 AM 63.5°F17.5°C 31.0°F-0.6°C 29% 6.1 mph N9.8 kmh N 9.0 mph14.5 kmh 30.02 in1016.6 mb 0.00 in0.0 mm 0.00 in0.0 mm 0.00 in0.0 mm
02:00 AM 63.6°F17.6°C 31.0°F-0.6°C 29% 6.4 mph NE10.3 kmh NE 13.0 mph20.9 kmh 30.03 in1016.9 mb 0.00 in0.0 mm 0.00 in0.0 mm 0.00 in0.0 mm
02:10 AM 63.1°F17.3°C 30.0°F-1.1°C 29% 6.0 mph N9.7 kmh N 11.0 mph17.7 kmh 30.02 in1016.6 mb 0.00 in0.0 mm 0.00 in0.0 mm 0.00 in0.0 mm
02:20 AM 63.4°F17.4°C 30.0°F-1.1°C 29% 7.5 mph NNE12.1 kmh NNE 14.0 mph22.5 kmh 30.03 in1016.9 mb 0.00 in0.0 mm 0.00 in0.0 mm 0.00 in0.0 mm
02:30 AM 63.4°F17.4°C 30.0°F-1.1°C 29% 7.0 mph N11.3 kmh N 12.0 mph19.3 kmh 30.03 in1016.9 mb 0.00 in0.0 mm 0.00 in0.0 mm 0.00 in0.0 mm
02:40 AM 63.0°F17.2°C 30.0°F-1.1°C 29% 6.4 mph NNW10.3 kmh NNW 12.0 mph19.3 kmh 30.03 in1016.9 mb 0.00 in0.0 mm 0.00 in0.0 mm 0.00 in0.0 mm
02:50 AM 62.9°F17.2°C 31.0°F-0.6°C 30% 5.8 mph NE9.3 kmh NE 10.0 mph16.1 kmh 30.03 in1016.9 mb 0.00 in0.0 mm 0.00 in0.0 mm 0.00 in0.0 mm
03:00 AM 63.4°F17.4°C 30.0°F-1.1°C 29% 7.8 mph NNE12.6 kmh NNE 12.0 mph19.3 kmh 30.03 in1016.9 mb 0.00 in0.0 mm 0.00 in0.0 mm 0.00 in0.0 mm
03:10 AM 63.2°F17.3°C 30.0°F-1.1°C 29% 7.0 mph N11.3 kmh N 11.0 mph17.7 kmh 30.03 in1016.9 mb 0.00 in0.0 mm 0.00 in0.0 mm 0.00 in0.0 mm
03:20 AM 63.0°F17.2°C 30.0°F-1.1°C 29% 6.4 mph NE10.3 kmh NE 11.0 mph17.7 kmh 30.02 in1016.6 mb 0.00 in0.0 mm 0.00 in0.0 mm 0.00 in0.0 mm
03:30 AM 62.8°F17.1°C 30.0°F-1.1°C 29% 6.7 mph NNE10.8 kmh NNE 12.0 mph19.3 kmh 30.02 in1016.6 mb 0.00 in0.0 mm 0.00 in0.0 mm 0.00 in0.0 mm
03:40 AM 62.9°F17.2°C 30.0°F-1.1°C 29% 6.4 mph NE10.3 kmh NE 12.0 mph19.3 kmh 30.02 in1016.6 mb 0.00 in0.0 mm 0.00 in0.0 mm 0.00 in0.0 mm
03:50 AM 63.3°F17.4°C 30.0°F-1.1°C 29% 6.9 mph NNE11.1 kmh NNE 12.0 mph19.3 kmh 30.02 in1016.6 mb 0.00 in0.0 mm 0.00 in0.0 mm 0.00 in0.0 mm
04:00 AM 63.0°F17.2°C 30.0°F-1.1°C 29% 6.9 mph NE11.1 kmh NE 13.0 mph20.9 kmh 30.02 in1016.6 mb 0.00 in0.0 mm 0.00 in0.0 mm 0.00 in0.0 mm
04:10 AM 62.8°F17.1°C 30.0°F-1.1°C 29% 6.7 mph ENE10.8 kmh ENE 13.0 mph20.9 kmh 30.02 in1016.6 mb 0.00 in0.0 mm 0.00 in0.0 mm 0.00 in0.0 mm
04:20 AM 63.3°F17.4°C 30.0°F-1.1°C 29% 4.1 mph NE6.6 kmh NE 9.0 mph14.5 kmh 30.02 in1016.6 mb 0.00 in0.0 mm 0.00 in0.0 mm 0.00 in0.0 mm
04:30 AM 63.2°F17.3°C 30.0°F-1.1°C 29% 4.9 mph NNE7.9 kmh NNE 9.0 mph14.5 kmh 30.01 in1016.3 mb 0.00 in0.0 mm 0.00 in0.0 mm 0.00 in0.0 mm
04:40 AM 63.5°F17.5°C 30.0°F-1.1°C 28% 2.1 mph NNE3.4 kmh NNE 9.0 mph14.5 kmh 30.01 in1016.3 mb 0.00 in0.0 mm 0.00 in0.0 mm 0.00 in0.0 mm
04:50 AM 63.9°F17.7°C 30.0°F-1.1°C 28% 3.5 mph NNE5.6 kmh NNE 9.0 mph14.5 kmh 30.01 in1016.3 mb 0.00 in0.0 mm 0.00 in0.0 mm 0.00 in0.0 mm
05:00 AM 63.3°F17.4°C 29.0°F-1.7°C 28% 5.8 mph N9.3 kmh N 9.0 mph14.5 kmh 30.02 in1016.6 mb 0.00 in0.0 mm 0.00 in0.0 mm 0.00 in0.0 mm
05:10 AM 62.6°F17.0°C 30.0°F-1.1°C 29% 5.7 mph NE9.2 kmh NE 9.0 mph14.5 kmh 30.01 in1016.3 mb 0.00 in0.0 mm 0.00 in0.0 mm 0.00 in0.0 mm
05:20 AM 63.2°F17.3°C 29.0°F-1.7°C 28% 5.5 mph N8.9 kmh N 9.0 mph14.5 kmh 30.02 in1016.6 mb 0.00 in0.0 mm 0.00 in0.0 mm 0.00 in0.0 mm
05:30 AM 63.4°F17.4°C 30.0°F-1.1°C 28% 4.3 mph NNE6.9 kmh NNE 8.0 mph12.9 kmh 30.02 in1016.6 mb 0.00 in0.0 mm 0.00 in0.0 mm 0.00 in0.0 mm
05:40 AM 63.5°F17.5°C 30.0°F-1.1°C 28% 2.8 mph N4.5 kmh N 7.0 mph11.3 kmh 30.02 in1016.6 mb 0.00 in0.0 mm 0.00 in0.0 mm 0.00 in0.0 mm
05:50 AM 63.1°F17.3°C 29.0°F-1.7°C 28% 2.4 mph N3.9 kmh N 4.0 mph6.4 kmh 30.02 in1016.6 mb 0.00 in0.0 mm 0.00 in0.0 mm 0.00 in0.0 mm
06:00 AM 63.3°F17.4°C 29.0°F-1.7°C 28% 2.8 mph N4.5 kmh N 7.0 mph11.3 kmh 30.02 in1016.6 mb 0.00 in0.0 mm 0.00 in0.0 mm 0.00 in0.0 mm
06:10 AM 62.8°F17.1°C 30.0°F-1.1°C 29% 2.4 mph NE3.9 kmh NE 5.0 mph8.0 kmh 30.02 in1016.6 mb 0.00 in0.0 mm 0.00 in0.0 mm 0.00 in0.0 mm
06:20 AM 62.8°F17.1°C 29.0°F-1.7°C 28% 2.8 mph NNW4.5 kmh NNW 6.0 mph9.7 kmh 30.02 in1016.6 mb 0.00 in0.0 mm 0.00 in0.0 mm 0.00 in0.0 mm
06:30 AM 63.0°F17.2°C 29.0°F-1.7°C 28% 1.9 mph N3.1 kmh N 4.0 mph6.4 kmh 30.02 in1016.6 mb 0.00 in0.0 mm 0.00 in0.0 mm 0.00 in0.0 mm
06:40 AM 63.4°F17.4°C 30.0°F-1.1°C 28% 2.1 mph N3.4 kmh N 5.0 mph8.0 kmh 30.02 in1016.6 mb 0.00 in0.0 mm 0.00 in0.0 mm 0.00 in0.0 mm
06:50 AM 63.4°F17.4°C 30.0°F-1.1°C 28% 2.2 mph N3.5 kmh N 6.0 mph9.7 kmh 30.02 in1016.6 mb 0.00 in0.0 mm 0.00 in0.0 mm 0.00 in0.0 mm
07:00 AM 63.3°F17.4°C 29.0°F-1.7°C 28% 1.9 mph NNE3.1 kmh NNE 5.0 mph8.0 kmh 30.02 in1016.6 mb 0.00 in0.0 mm 0.00 in0.0 mm 0.00 in0.0 mm
07:10 AM 62.7°F17.1°C 29.0°F-1.7°C 28% 2.3 mph NNE3.7 kmh NNE 5.0 mph8.0 kmh 30.03 in1016.9 mb 0.00 in0.0 mm 0.00 in0.0 mm 0.00 in0.0 mm
07:20 AM 62.4°F16.9°C 30.0°F-1.1°C 29% 1.6 mph ENE2.6 kmh ENE 5.0 mph8.0 kmh 30.03 in1016.9 mb 0.00 in0.0 mm 0.00 in0.0 mm 0.00 in0.0 mm
07:30 AM 63.3°F17.4°C 29.0°F-1.7°C 28% 2.5 mph NNE4.0 kmh NNE 7.0 mph11.3 kmh 30.03 in1016.9 mb 0.00 in0.0 mm 0.00 in0.0 mm 0.00 in0.0 mm
07:40 AM 62.8°F17.1°C 30.0°F-1.1°C 29% 2.5 mph N4.0 kmh N 5.0 mph8.0 kmh 30.04 in1017.3 mb 0.00 in0.0 mm 0.00 in0.0 mm 0.00 in0.0 mm
07:50 AM 63.2°F17.3°C 29.0°F-1.7°C 28% 5.3 mph N8.5 kmh N 10.0 mph16.1 kmh 30.04 in1017.3 mb 0.00 in0.0 mm 0.00 in0.0 mm 0.00 in0.0 mm
08:00 AM 62.7°F17.1°C 30.0°F-1.1°C 29% 4.5 mph N7.2 kmh N 9.0 mph14.5 kmh 30.04 in1017.3 mb 0.00 in0.0 mm 0.00 in0.0 mm 0.00 in0.0 mm
08:10 AM 62.9°F17.2°C 30.0°F-1.1°C 29% 3.8 mph NNE6.1 kmh NNE 9.0 mph14.5 kmh 30.04 in1017.3 mb 0.00 in0.0 mm 0.00 in0.0 mm 0.00 in0.0 mm
08:20 AM 63.4°F17.4°C 30.0°F-1.1°C 29% 2.9 mph N4.7 kmh N 6.0 mph9.7 kmh 30.04 in1017.3 mb 0.00 in0.0 mm 0.00 in0.0 mm 0.00 in0.0 mm
08:30 AM 64.1°F17.8°C 30.0°F-1.1°C 28% 3.7 mph NE6.0 kmh NE 8.0 mph12.9 kmh 30.04 in1017.3 mb 0.00 in0.0 mm 0.00 in0.0 mm 0.00 in0.0 mm
08:40 AM 64.9°F18.3°C 30.0°F-1.1°C 27% 4.4 mph NNE7.1 kmh NNE 9.0 mph14.5 kmh 30.04 in1017.3 mb 0.00 in0.0 mm 0.00 in0.0 mm 0.00 in0.0 mm
08:50 AM 65.8°F18.8°C 30.0°F-1.1°C 26% 3.9 mph N6.3 kmh N 8.0 mph12.9 kmh 30.04 in1017.3 mb 0.00 in0.0 mm 0.00 in0.0 mm 0.00 in0.0 mm
09:00 AM 66.2°F19.0°C 30.0°F-1.1°C 26% 4.7 mph NNE7.6 kmh NNE 10.0 mph16.1 kmh 30.04 in1017.3 mb 0.00 in0.0 mm 0.00 in0.0 mm 0.00 in0.0 mm
09:10 AM 66.6°F19.2°C 31.0°F-0.6°C 26% 5.0 mph NNE8.0 kmh NNE 10.0 mph16.1 kmh 30.04 in1017.3 mb 0.00 in0.0 mm 0.00 in0.0 mm 0.00 in0.0 mm
09:20 AM 66.7°F19.3°C 31.0°F-0.6°C 26% 6.4 mph N10.3 kmh N 12.0 mph19.3 kmh 30.05 in1017.6 mb 0.00 in0.0 mm 0.00 in0.0 mm 0.00 in0.0 mm
09:30 AM 67.0°F19.4°C 32.0°F0.0°C 27% 5.2 mph NE8.4 kmh NE 9.0 mph14.5 kmh 30.05 in1017.6 mb 0.00 in0.0 mm 0.00 in0.0 mm 0.00 in0.0 mm
09:40 AM 68.4°F20.2°C 30.0°F-1.1°C 24% 5.6 mph NW9.0 kmh NW 11.0 mph17.7 kmh 30.05 in1017.6 mb 0.00 in0.0 mm 0.00 in0.0 mm 0.00 in0.0 mm
09:50 AM 69.0°F20.6°C 31.0°F-0.6°C 24% 6.2 mph N10.0 kmh N 11.0 mph17.7 kmh 30.05 in1017.6 mb 0.00 in0.0 mm 0.00 in0.0 mm 0.00 in0.0 mm
10:00 AM 69.6°F20.9°C 31.0°F-0.6°C 24% 5.4 mph N8.7 kmh N 12.0 mph19.3 kmh 30.05 in1017.6 mb 0.00 in0.0 mm 0.00 in0.0 mm 0.00 in0.0 mm
10:10 AM 70.1°F21.2°C 32.0°F0.0°C 24% 5.3 mph N8.5 kmh N 11.0 mph17.7 kmh 30.05 in1017.6 mb 0.00 in0.0 mm 0.00 in0.0 mm 0.00 in0.0 mm
10:20 AM 71.1°F21.7°C 31.0°F-0.6°C 23% 4.3 mph NE6.9 kmh NE 9.0 mph14.5 kmh 30.05 in1017.6 mb 0.00 in0.0 mm 0.00 in0.0 mm 0.00 in0.0 mm
10:30 AM 72.5°F22.5°C 31.0°F-0.6°C 22% 4.4 mph NE7.1 kmh NE 10.0 mph16.1 kmh 30.05 in1017.6 mb 0.00 in0.0 mm 0.00 in0.0 mm 0.00 in0.0 mm
10:40 AM 72.7°F22.6°C 30.0°F-1.1°C 21% 4.8 mph NNE7.7 kmh NNE 10.0 mph16.1 kmh 30.05 in1017.6 mb 0.00 in0.0 mm 0.00 in0.0 mm 0.00 in0.0 mm
10:50 AM 73.3°F22.9°C 31.0°F-0.6°C 21% 3.5 mph NNE5.6 kmh NNE 6.0 mph9.7 kmh 30.04 in1017.3 mb 0.00 in0.0 mm 0.00 in0.0 mm 0.00 in0.0 mm
11:00 AM 74.5°F23.6°C 34.0°F1.1°C 23% 2.2 mph SSW3.5 kmh SSW 6.0 mph9.7 kmh 30.04 in1017.3 mb 0.00 in0.0 mm 0.00 in0.0 mm 0.00 in0.0 mm
11:10 AM 75.5°F24.2°C 34.0°F1.1°C 22% 1.5 mph SE2.4 kmh SE 4.0 mph6.4 kmh 30.04 in1017.3 mb 0.00 in0.0 mm 0.00 in0.0 mm 0.00 in0.0 mm
11:20 AM 76.0°F24.4°C 34.0°F1.1°C 22% 1.4 mph SW2.3 kmh SW 4.0 mph6.4 kmh 30.04 in1017.3 mb 0.00 in0.0 mm 0.00 in0.0 mm 0.00 in0.0 mm
11:30 AM 76.0°F24.4°C 32.0°F0.0°C 20% 1.8 mph ESE2.9 kmh ESE 4.0 mph6.4 kmh 30.04 in1017.3 mb 0.00 in0.0 mm 0.00 in0.0 mm 0.00 in0.0 mm
11:40 AM 76.0°F24.4°C 33.0°F0.6°C 21% 2.3 mph SW3.7 kmh SW 5.0 mph8.0 kmh 30.04 in1017.3 mb 0.00 in0.0 mm 0.00 in0.0 mm 0.00 in0.0 mm
11:50 AM 76.6°F24.8°C 33.0°F0.6°C 20% 1.4 mph SSW2.3 kmh SSW 3.0 mph4.8 kmh 30.04 in1017.3 mb 0.00 in0.0 mm 0.00 in0.0 mm 0.00 in0.0 mm
12:00 PM 76.5°F24.7°C 33.0°F0.6°C 20% 2.0 mph S3.2 kmh S 5.0 mph8.0 kmh 30.03 in1016.9 mb 0.00 in0.0 mm 0.00 in0.0 mm 0.00 in0.0 mm
12:10 PM 76.3°F24.6°C 32.0°F0.0°C 20% 2.6 mph WSW4.2 kmh WSW 5.0 mph8.0 kmh 30.03 in1016.9 mb 0.00 in0.0 mm 0.00 in0.0 mm 0.00 in0.0 mm
12:20 PM 76.1°F24.5°C 32.0°F0.0°C 20% 2.1 mph SE3.4 kmh SE 6.0 mph9.7 kmh 30.03 in1016.9 mb 0.00 in0.0 mm 0.00 in0.0 mm 0.00 in0.0 mm
12:30 PM 76.4°F24.7°C 32.0°F0.0°C 20% 1.3 mph SW2.1 kmh SW 3.0 mph4.8 kmh 30.02 in1016.6 mb 0.00 in0.0 mm 0.00 in0.0 mm 0.00 in0.0 mm
12:40 PM 76.7°F24.8°C 33.0°F0.6°C 20% 2.0 mph SSE3.2 kmh SSE 6.0 mph9.7 kmh 30.02 in1016.6 mb 0.00 in0.0 mm 0.00 in0.0 mm 0.00 in0.0 mm
12:50 PM 76.3°F24.6°C 31.0°F-0.6°C 19% 1.4 mph SE2.3 kmh SE 5.0 mph8.0 kmh 30.01 in1016.3 mb 0.00 in0.0 mm 0.00 in0.0 mm 0.00 in0.0 mm
01:00 PM 75.9°F24.4°C 31.0°F-0.6°C 19% 2.2 mph S3.5 kmh S 5.0 mph8.0 kmh 30.00 in1015.9 mb 0.00 in0.0 mm 0.00 in0.0 mm 0.00 in0.0 mm
01:10 PM 76.0°F24.4°C 32.0°F0.0°C 20% 2.1 mph SSE3.4 kmh SSE 6.0 mph9.7 kmh 30.00 in1015.9 mb 0.00 in0.0 mm 0.00 in0.0 mm 0.00 in0.0 mm
01:20 PM 76.2°F24.6°C 32.0°F0.0°C 20% 1.6 mph SSW2.6 kmh SSW 5.0 mph8.0 kmh 30.00 in1015.9 mb 0.00 in0.0 mm 0.00 in0.0 mm 0.00 in0.0 mm
01:30 PM 76.3°F24.6°C 30.0°F-1.1°C 18% 1.5 mph SE2.4 kmh SE 3.0 mph4.8 kmh 30.00 in1015.9 mb 0.00 in0.0 mm 0.00 in0.0 mm 0.00 in0.0 mm
01:40 PM 76.6°F24.8°C 31.0°F-0.6°C 19% 1.2 mph S1.9 kmh S 3.0 mph4.8 kmh 29.99 in1015.6 mb 0.00 in0.0 mm 0.00 in0.0 mm 0.00 in0.0 mm
01:50 PM 77.3°F25.2°C 31.0°F-0.6°C 18% 1.0 mph SE1.6 kmh SE 3.0 mph4.8 kmh 29.99 in1015.6 mb 0.00 in0.0 mm 0.00 in0.0 mm 0.00 in0.0 mm
02:00 PM 77.3°F25.2°C 32.0°F0.0°C 19% 1.2 mph SE1.9 kmh SE 3.0 mph4.8 kmh 29.99 in1015.6 mb 0.00 in0.0 mm 0.00 in0.0 mm 0.00 in0.0 mm
02:10 PM 77.1°F25.1°C 32.0°F0.0°C 19% 1.5 mph S2.4 kmh S 4.0 mph6.4 kmh 29.99 in1015.6 mb 0.00 in0.0 mm 0.00 in0.0 mm 0.00 in0.0 mm
02:20 PM 76.9°F24.9°C 32.0°F0.0°C 19% 1.3 mph SE2.1 kmh SE 3.0 mph4.8 kmh 29.98 in1015.2 mb 0.00 in0.0 mm 0.00 in0.0 mm 0.00 in0.0 mm
02:30 PM 76.4°F24.7°C 30.0°F-1.1°C 18% 2.1 mph S3.4 kmh S 5.0 mph8.0 kmh 29.98 in1015.2 mb 0.00 in0.0 mm 0.00 in0.0 mm 0.00 in0.0 mm
02:40 PM 76.4°F24.7°C 31.0°F-0.6°C 19% 1.8 mph SSW2.9 kmh SSW 4.0 mph6.4 kmh 29.98 in1015.2 mb 0.00 in0.0 mm 0.00 in0.0 mm 0.00 in0.0 mm
02:50 PM 76.7°F24.8°C 33.0°F0.6°C 20% 1.6 mph SW2.6 kmh SW 4.0 mph6.4 kmh 29.98 in1015.2 mb 0.00 in0.0 mm 0.00 in0.0 mm 0.00 in0.0 mm
03:00 PM 77.0°F25.0°C 32.0°F0.0°C 19% 1.3 mph SE2.1 kmh SE 6.0 mph9.7 kmh 29.98 in1015.2 mb 0.00 in0.0 mm 0.00 in0.0 mm 0.00 in0.0 mm
03:10 PM 76.6°F24.8°C 31.0°F-0.6°C 19% 1.4 mph S2.3 kmh S 3.0 mph4.8 kmh 29.98 in1015.2 mb 0.00 in0.0 mm 0.00 in0.0 mm 0.00 in0.0 mm
03:20 PM 76.2°F24.6°C 35.0°F1.7°C 22% 0.9 mph SW1.4 kmh SW 4.0 mph6.4 kmh 29.98 in1015.2 mb 0.00 in0.0 mm 0.00 in0.0 mm 0.00 in0.0 mm
03:30 PM 76.0°F24.4°C 33.0°F0.6°C 21% 0.2 mph SSW0.3 kmh SSW 1.0 mph1.6 kmh 29.98 in1015.2 mb 0.00 in0.0 mm 0.00 in0.0 mm 0.00 in0.0 mm
03:40 PM 75.9°F24.4°C 34.0°F1.1°C 22% 1.1 mph SW1.8 kmh SW 3.0 mph4.8 kmh 29.98 in1015.2 mb 0.00 in0.0 mm 0.00 in0.0 mm 0.00 in0.0 mm
03:50 PM 76.0°F24.4°C 32.0°F0.0°C 20% 0.6 mph SW1.0 kmh SW 3.0 mph4.8 kmh 29.98 in1015.2 mb 0.00 in0.0 mm 0.00 in0.0 mm 0.00 in0.0 mm
04:00 PM 76.2°F24.6°C 33.0°F0.6°C 21% 1.1 mph SW1.8 kmh SW 3.0 mph4.8 kmh 29.98 in1015.2 mb 0.00 in0.0 mm 0.00 in0.0 mm 0.00 in0.0 mm
04:10 PM 76.6°F24.8°C 34.0°F1.1°C 21% 1.4 mph S2.3 kmh S 4.0 mph6.4 kmh 29.98 in1015.2 mb 0.00 in0.0 mm 0.00 in0.0 mm 0.00 in0.0 mm
04:20 PM 76.1°F24.5°C 33.0°F0.6°C 21% 1.1 mph SSW1.8 kmh SSW 3.0 mph4.8 kmh 29.98 in1015.2 mb 0.00 in0.0 mm 0.00 in0.0 mm 0.00 in0.0 mm
04:30 PM 75.8°F24.3°C 34.0°F1.1°C 22% 0.7 mph SW1.1 kmh SW 2.0 mph3.2 kmh 29.99 in1015.6 mb 0.00 in0.0 mm 0.00 in0.0 mm 0.00 in0.0 mm
04:40 PM 75.1°F23.9°C 34.0°F1.1°C 22% 0.6 mph SW1.0 kmh SW 3.0 mph4.8 kmh 29.99 in1015.6 mb 0.00 in0.0 mm 0.00 in0.0 mm 0.00 in0.0 mm
04:50 PM 74.8°F23.8°C 35.0°F1.7°C 23% 0.4 mph SW0.6 kmh SW 2.0 mph3.2 kmh 29.99 in1015.6 mb 0.00 in0.0 mm 0.00 in0.0 mm 0.00 in0.0 mm
05:00 PM 74.2°F23.4°C 35.0°F1.7°C 24% 0.5 mph SW0.8 kmh SW 2.0 mph3.2 kmh 29.99 in1015.6 mb 0.00 in0.0 mm 0.00 in0.0 mm 0.00 in0.0 mm
05:10 PM 73.6°F23.1°C 35.0°F1.7°C 24% Calm Calm 1.0 mph1.6 kmh 29.99 in1015.6 mb 0.00 in0.0 mm 0.00 in0.0 mm 0.00 in0.0 mm
05:20 PM 72.6°F22.6°C 36.0°F2.2°C 26% Calm Calm -- 29.99 in1015.6 mb 0.00 in0.0 mm 0.00 in0.0 mm 0.00 in0.0 mm
05:30 PM 71.0°F21.7°C 35.0°F1.7°C 27% Calm Calm -- 30.00 in1015.9 mb 0.00 in0.0 mm 0.00 in0.0 mm 0.00 in0.0 mm
05:40 PM 69.3°F20.7°C 36.0°F2.2°C 29% Calm Calm -- 30.00 in1015.9 mb 0.00 in0.0 mm 0.00 in0.0 mm 0.00 in0.0 mm
05:50 PM 69.4°F20.8°C 35.0°F1.7°C 28% Calm Calm -- 30.00 in1015.9 mb 0.00 in0.0 mm 0.00 in0.0 mm 0.00 in0.0 mm
06:00 PM 69.3°F20.7°C 35.0°F1.7°C 28% Calm Calm 1.0 mph1.6 kmh 30.00 in1015.9 mb 0.00 in0.0 mm 0.00 in0.0 mm 0.00 in0.0 mm
06:10 PM 67.9°F19.9°C 34.0°F1.1°C 29% Calm Calm -- 30.00 in1015.9 mb 0.00 in0.0 mm 0.00 in0.0 mm 0.00 in0.0 mm
06:20 PM 67.3°F19.6°C 34.0°F1.1°C 29% Calm Calm -- 30.01 in1016.3 mb 0.00 in0.0 mm 0.00 in0.0 mm 0.00 in0.0 mm
06:30 PM 66.9°F19.4°C 34.0°F1.1°C 29% Calm Calm 1.0 mph1.6 kmh 30.01 in1016.3 mb 0.00 in0.0 mm 0.00 in0.0 mm 0.00 in0.0 mm
06:40 PM 66.8°F19.3°C 33.0°F0.6°C 29% Calm Calm -- 30.01 in1016.3 mb 0.00 in0.0 mm 0.00 in0.0 mm 0.00 in0.0 mm
06:50 PM 66.5°F19.2°C 33.0°F0.6°C 29% Calm Calm 1.0 mph1.6 kmh 30.01 in1016.3 mb 0.00 in0.0 mm 0.00 in0.0 mm 0.00 in0.0 mm
07:00 PM 66.7°F19.3°C 33.0°F0.6°C 29% Calm Calm 1.0 mph1.6 kmh 30.02 in1016.6 mb 0.00 in0.0 mm 0.00 in0.0 mm 0.00 in0.0 mm
07:10 PM 66.3°F19.1°C 33.0°F0.6°C 29% 1.0 mph N1.6 kmh N 3.0 mph4.8 kmh 30.02 in1016.6 mb 0.00 in0.0 mm 0.00 in0.0 mm 0.00 in0.0 mm
07:20 PM 65.8°F18.8°C 33.0°F0.6°C 30% 1.2 mph N1.9 kmh N 2.0 mph3.2 kmh 30.02 in1016.6 mb 0.00 in0.0 mm 0.00 in0.0 mm 0.00 in0.0 mm
07:30 PM 65.7°F18.7°C 33.0°F0.6°C 30% 0.8 mph N1.3 kmh N 2.0 mph3.2 kmh 30.02 in1016.6 mb 0.00 in0.0 mm 0.00 in0.0 mm 0.00 in0.0 mm
07:40 PM 65.3°F18.5°C 33.0°F0.6°C 30% 1.3 mph NNE2.1 kmh NNE 2.0 mph3.2 kmh 30.02 in1016.6 mb 0.00 in0.0 mm 0.00 in0.0 mm 0.00 in0.0 mm
07:50 PM 65.7°F18.7°C 33.0°F0.6°C 30% 1.4 mph N2.3 kmh N 3.0 mph4.8 kmh 30.02 in1016.6 mb 0.00 in0.0 mm 0.00 in0.0 mm 0.00 in0.0 mm
08:00 PM 65.6°F18.7°C 32.0°F0.0°C 29% 1.2 mph N1.9 kmh N 2.0 mph3.2 kmh 30.02 in1016.6 mb 0.00 in0.0 mm 0.00 in0.0 mm 0.00 in0.0 mm
08:10 PM 65.2°F18.4°C 33.0°F0.6°C 30% 1.7 mph N2.7 kmh N 4.0 mph6.4 kmh 30.02 in1016.6 mb 0.00 in0.0 mm 0.00 in0.0 mm 0.00 in0.0 mm
08:20 PM 65.7°F18.7°C 32.0°F0.0°C 29% 1.5 mph N2.4 kmh N 3.0 mph4.8 kmh 30.02 in1016.6 mb 0.00 in0.0 mm 0.00 in0.0 mm 0.00 in0.0 mm
08:30 PM 65.1°F18.4°C 33.0°F0.6°C 30% 1.3 mph N2.1 kmh N 2.0 mph3.2 kmh 30.03 in1016.9 mb 0.00 in0.0 mm 0.00 in0.0 mm 0.00 in0.0 mm
08:40 PM 64.6°F18.1°C 31.0°F-0.6°C 29% 1.9 mph N3.1 kmh N 6.0 mph9.7 kmh 30.03 in1016.9 mb 0.00 in0.0 mm 0.00 in0.0 mm 0.00 in0.0 mm
08:50 PM 65.4°F18.6°C 31.0°F-0.6°C 28% 3.0 mph N4.8 kmh N 6.0 mph9.7 kmh 30.03 in1016.9 mb 0.00 in0.0 mm 0.00 in0.0 mm 0.00 in0.0 mm
09:00 PM 65.9°F18.8°C 31.0°F-0.6°C 27% 2.6 mph N4.2 kmh N 5.0 mph8.0 kmh 30.03 in1016.9 mb 0.00 in0.0 mm 0.00 in0.0 mm 0.00 in0.0 mm
09:10 PM 66.7°F19.3°C 32.0°F0.0°C 27% 3.1 mph NNE5.0 kmh NNE 6.0 mph9.7 kmh 30.03 in1016.9 mb 0.00 in0.0 mm 0.00 in0.0 mm 0.00 in0.0 mm
09:20 PM 66.9°F19.4°C 32.0°F0.0°C 27% 3.1 mph NNE5.0 kmh NNE 7.0 mph11.3 kmh 30.04 in1017.3 mb 0.00 in0.0 mm 0.00 in0.0 mm 0.00 in0.0 mm
09:30 PM 66.5°F19.2°C 31.0°F-0.6°C 27% 3.2 mph NE5.1 kmh NE 7.0 mph11.3 kmh 30.04 in1017.3 mb 0.00 in0.0 mm 0.00 in0.0 mm 0.00 in0.0 mm
09:40 PM 66.2°F19.0°C 31.0°F-0.6°C 27% 3.7 mph N6.0 kmh N 7.0 mph11.3 kmh 30.04 in1017.3 mb 0.00 in0.0 mm 0.00 in0.0 mm 0.00 in0.0 mm
09:50 PM 64.8°F18.2°C 32.0°F0.0°C 29% 2.0 mph NE3.2 kmh NE 6.0 mph9.7 kmh 30.04 in1017.3 mb 0.00 in0.0 mm 0.00 in0.0 mm 0.00 in0.0 mm
10:00 PM 64.6°F18.1°C 31.0°F-0.6°C 29% 2.9 mph NE4.7 kmh NE 7.0 mph11.3 kmh 30.04 in1017.3 mb 0.00 in0.0 mm 0.00 in0.0 mm 0.00 in0.0 mm
10:10 PM 64.7°F18.2°C 32.0°F0.0°C 29% 2.9 mph N4.7 kmh N 6.0 mph9.7 kmh 30.04 in1017.3 mb 0.00 in0.0 mm 0.00 in0.0 mm 0.00 in0.0 mm
10:20 PM 64.0°F17.8°C 32.0°F0.0°C 30% 2.7 mph NNE4.3 kmh NNE 6.0 mph9.7 kmh 30.04 in1017.3 mb 0.00 in0.0 mm 0.00 in0.0 mm 0.00 in0.0 mm
10:30 PM 64.3°F17.9°C 31.0°F-0.6°C 29% 2.2 mph N3.5 kmh N 4.0 mph6.4 kmh 30.05 in1017.6 mb 0.00 in0.0 mm 0.00 in0.0 mm 0.00 in0.0 mm
10:40 PM 65.9°F18.8°C 32.0°F0.0°C 28% 2.4 mph N3.9 kmh N 6.0 mph9.7 kmh 30.04 in1017.3 mb 0.00 in0.0 mm 0.00 in0.0 mm 0.00 in0.0 mm
10:50 PM 65.8°F18.8°C 32.0°F0.0°C 28% 2.1 mph N3.4 kmh N 8.0 mph12.9 kmh 30.04 in1017.3 mb 0.00 in0.0 mm 0.00 in0.0 mm 0.00 in0.0 mm
11:00 PM 65.1°F18.4°C 31.0°F-0.6°C 28% 0.8 mph NNE1.3 kmh NNE 4.0 mph6.4 kmh 30.04 in1017.3 mb 0.00 in0.0 mm 0.00 in0.0 mm 0.00 in0.0 mm
11:10 PM 64.5°F18.1°C 31.0°F-0.6°C 29% 0.9 mph NW1.4 kmh NW 3.0 mph4.8 kmh 30.04 in1017.3 mb 0.00 in0.0 mm 0.00 in0.0 mm 0.00 in0.0 mm
11:20 PM 63.9°F17.7°C 32.0°F0.0°C 30% 1.2 mph N1.9 kmh N 3.0 mph4.8 kmh 30.04 in1017.3 mb 0.00 in0.0 mm 0.00 in0.0 mm 0.00 in0.0 mm
11:30 PM 64.2°F17.9°C 31.0°F-0.6°C 29% 1.8 mph N2.9 kmh N 5.0 mph8.0 kmh 30.04 in1017.3 mb 0.00 in0.0 mm 0.00 in0.0 mm 0.00 in0.0 mm
11:40 PM 64.4°F18.0°C 31.0°F-0.6°C 29% 3.9 mph N6.3 kmh N 8.0 mph12.9 kmh 30.04 in1017.3 mb 0.00 in0.0 mm 0.00 in0.0 mm 0.00 in0.0 mm
11:50 PM 64.4°F18.0°C 31.0°F-0.6°C 29% 5.0 mph NNE8.0 kmh NNE 9.0 mph14.5 kmh 30.05 in1017.6 mb 0.00 in0.0 mm 0.00 in0.0 mm 0.00 in0.0 mm